Time;durP1;ratioP1;P1;durP2;ratioP2;P2;SDS_P1;SDS_P2;PMS_P1;PMS_P2;Temp;Humidity;BMP_temperature;BMP_pressure;BME280_temperature;BME280_humidity;BME280_pressure;Samples;Min_cycle;Max_cycle;Signal;HPM_P1;HPM_P2
2021/12/20 00:01:00;;;;;;;46.97;7.10;;;;;;;0.75;100.00;1470.84;5051716;28;20505;-69
2021/12/20 00:03:26;;;;;;;43.73;7.70;;;;;;;0.90;100.00;1476.97;5051702;28;20574;-69
2021/12/20 00:05:51;;;;;;;36.97;8.27;;;;;;;0.89;100.00;2291.84;5058198;28;20539;-69
2021/12/20 00:08:17;;;;;;;54.13;8.80;;;;;;;0.87;100.00;1721.72;5051557;28;20500;-69
2021/12/20 00:10:43;;;;;;;31.70;6.43;;;;;;;0.85;100.00;986.75;5051213;28;20115;-69
2021/12/20 00:13:08;;;;;;;46.43;8.83;;;;;;;0.69;100.00;371.13;5053552;28;20382;-70
2021/12/20 00:15:34;;;;;;;46.83;7.57;;;;;;;0.63;100.00;-890.28;5054594;28;20319;-69
2021/12/20 00:17:59;;;;;;;56.10;7.83;;;;;;;0.63;100.00;-1102.47;5048661;28;20101;-69
2021/12/20 00:20:25;;;;;;;37.47;7.80;;;;;;;0.48;100.00;-1991.38;5052309;28;20105;-69
2021/12/20 00:22:50;;;;;;;58.87;8.53;;;;;;;0.47;100.00;-1517.28;5053111;28;20357;-70
2021/12/20 00:25:16;;;;;;;58.83;7.97;;;;;;;0.35;100.00;-2485.56;5053569;28;20082;-70
2021/12/20 00:27:42;;;;;;;34.77;5.63;;;;;;;0.23;100.00;-3345.94;5047203;28;20037;-69
2021/12/20 00:30:09;;;;;;;31.07;7.23;;;;;;;0.13;100.00;-4340.34;5054985;28;20614;-69
2021/12/20 00:32:35;;;;;;;42.97;8.33;;;;;;;0.12;100.00;-4524.75;5052826;28;20024;-69
2021/12/20 00:35:01;;;;;;;51.40;9.77;;;;;;;0.03;100.00;-5446.22;5056379;28;20296;-69
2021/12/20 00:40:23;;;;;;;39.70;8.47;;;;;;;-0.08;100.00;-8883.13;5053527;28;20367;-69
2021/12/20 00:42:54;;;;;;;72.27;8.40;;;;;;;-0.12;100.00;-9765.69;5052614;28;20263;-69
2021/12/20 00:45:22;;;;;;;46.17;8.48;;;;;;;-0.30;100.00;-10459.75;5052909;28;20408;-69
2021/12/20 00:47:48;;;;;;;35.73;6.33;;;;;;;-0.49;100.00;-11848.59;5052822;28;20107;-69
2021/12/20 00:50:15;;;;;;;36.47;7.23;;;;;;;-0.35;100.00;-12354.97;5051902;28;20428;-69
2021/12/20 00:52:42;;;;;;;42.53;6.80;;;;;;;-0.12;100.00;-11861.41;5051066;28;20052;-69
2021/12/20 00:55:08;;;;;;;37.77;8.03;;;;;;;-0.36;100.00;-12930.97;5049171;28;20546;-69
2021/12/20 00:57:33;;;;;;;57.97;9.83;;;;;;;-0.42;100.00;-13575.63;5053183;28;20286;-69
2021/12/20 00:59:59;;;;;;;46.20;10.33;;;;;;;-0.55;100.00;-14032.44;5053805;28;20430;-69
2021/12/20 01:02:24;;;;;;;39.20;7.17;;;;;;;-0.61;100.00;-14527.72;5053998;28;20256;-69
2021/12/20 01:04:50;;;;;;;53.80;11.77;;;;;;;-0.58;100.00;-14597.78;5053603;28;20415;-69
2021/12/20 01:07:15;;;;;;;93.77;14.63;;;;;;;-0.47;100.00;-14346.72;5052387;28;20032;-69
2021/12/20 01:09:40;;;;;;;69.93;15.27;;;;;;;-0.06;100.00;-13658.78;5056710;28;20093;-69
2021/12/20 01:12:08;;;;;;;76.17;16.53;;;;;;;0.14;100.00;-13110.41;5056169;28;20052;-69
2021/12/20 01:14:36;;;;;;;89.70;18.27;;;;;;;0.18;100.00;-13364.69;5057085;28;20573;-69
2021/12/20 01:17:05;;;;;;;91.23;15.47;;;;;;;0.09;100.00;-14043.84;5044070;28;20424;-69
2021/12/20 01:19:32;;;;;;;62.33;16.00;;;;;;;-0.08;100.00;-15059.03;5051482;28;20267;-69
2021/12/20 01:21:58;;;;;;;77.80;17.57;;;;;;;-0.10;100.00;-15426.19;5055994;28;20716;-69
2021/12/20 01:24:23;;;;;;;80.23;17.87;;;;;;;-0.11;100.00;-15848.00;5055938;28;20344;-69
2021/12/20 01:26:49;;;;;;;84.33;16.20;;;;;;;-0.06;100.00;-15893.63;5051819;28;20043;-70
2021/12/20 01:29:14;;;;;;;86.10;19.77;;;;;;;0.02;100.00;-15237.34;5057050;28;20034;-69
2021/12/20 01:31:40;;;;;;;79.77;20.03;;;;;;;-0.04;100.00;-15750.16;5055357;28;20028;-69
2021/12/20 01:34:05;;;;;;;96.97;19.10;;;;;;;-0.15;100.00;-16787.72;5055444;28;20033;-70
2021/12/20 01:36:31;;;;;;;74.83;19.10;;;;;;;-0.12;100.00;-17346.69;5058023;28;20189;-69
2021/12/20 01:38:56;;;;;;;74.67;18.90;;;;;;;-0.04;100.00;-17090.38;5060313;28;20024;-70
2021/12/20 01:41:22;;;;;;;71.30;16.60;;;;;;;-0.06;100.00;-18129.59;5060881;28;20685;-69
2021/12/20 01:43:47;;;;;;;94.80;17.00;;;;;;;-0.11;100.00;-18207.72;5054771;28;20036;-69
2021/12/20 01:46:13;;;;;;;79.03;16.50;;;;;;;-0.13;100.00;-18497.28;5061168;28;20118;-69
2021/12/20 01:48:41;;;;;;;101.20;16.50;;;;;;;-0.14;100.00;-18162.34;5057562;28;20028;-69
2021/12/20 01:53:32;;;;;;;70.73;14.20;;;;;;;-0.13;100.00;-18542.06;5060404;28;20282;-69
2021/12/20 01:55:58;;;;;;;72.10;12.37;;;;;;;-0.29;100.00;-18795.81;5060291;28;20013;-69
2021/12/20 01:58:27;;;;;;;49.57;11.73;;;;;;;-0.20;100.00;-18966.78;5057485;28;20278;-69
2021/12/20 02:03:33;;;;;;;56.87;13.27;;;;;;;0.04;100.00;-18538.84;5059795;22;20266;-66
2021/12/20 02:05:59;;;;;;;73.10;12.00;;;;;;;0.01;100.00;-18585.06;5021341;28;20363;-66
2021/12/20 02:08:28;;;;;;;56.30;9.50;;;;;;;-0.12;100.00;-18750.66;5019734;28;20284;-66
2021/12/20 02:10:56;;;;;;;63.27;10.83;;;;;;;-0.15;100.00;-18868.75;5009056;28;20375;-66
2021/12/20 02:13:25;;;;;;;54.93;9.90;;;;;;;-0.24;100.00;-19002.91;5019218;28;20276;-66
2021/12/20 02:15:51;;;;;;;47.20;9.63;;;;;;;-0.30;100.00;-18919.66;5020247;28;20639;-66
2021/12/20 02:18:16;;;;;;;59.17;10.27;;;;;;;-0.67;100.00;-19149.78;5015875;28;21110;-66
2021/12/20 02:20:42;;;;;;;50.40;9.23;;;;;;;-0.99;100.00;-19141.25;5023311;28;20283;-66
2021/12/20 02:23:08;;;;;;;66.77;11.27;;;;;;;-1.13;100.00;-19137.53;5012472;28;20053;-66
2021/12/20 02:25:35;;;;;;;51.97;10.70;;;;;;;-1.11;100.00;-19138.06;5018749;28;20037;-66
2021/12/20 02:28:15;;;;;;;36.67;9.63;;;;;;;-1.21;100.00;-19135.66;5019210;28;20292;-66
2021/12/20 02:38:46;;;;;;;42.17;8.70;;;;;;;-1.30;100.00;-19133.25;4999405;28;20327;-66
2021/12/20 02:41:20;;;;;;;60.50;9.43;;;;;;;-1.34;100.00;-19132.06;4998072;28;20312;-66
2021/12/20 02:43:54;;;;;;;49.37;9.87;;;;;;;-1.21;100.00;-19135.66;4999017;28;20396;-66
2021/12/20 02:49:10;;;;;;;46.93;9.60;;;;;;;-1.10;100.00;-19138.31;5000974;28;20299;-66
2021/12/20 02:51:37;;;;;;;57.57;12.93;;;;;;;-1.30;100.00;-19133.25;4993315;28;21190;-66
2021/12/20 02:54:06;;;;;;;46.83;9.50;;;;;;;-1.49;100.00;-19128.19;4995288;28;21056;-66
2021/12/20 02:56:32;;;;;;;74.30;12.07;;;;;;;-1.43;100.00;-19129.66;4997185;28;20289;-66
2021/12/20 02:58:58;;;;;;;50.00;10.20;;;;;;;-1.49;100.00;-19128.19;4998653;28;21093;-66
2021/12/20 03:01:23;;;;;;;47.83;9.13;;;;;;;-1.52;100.00;-19127.41;4979059;28;20091;-66
2021/12/20 03:03:51;;;;;;;60.50;8.67;;;;;;;-1.54;100.00;-19126.88;4998258;28;20112;-66
2021/12/20 03:06:18;;;;;;;62.60;10.77;;;;;;;-1.37;100.00;-19131.41;4994010;28;20050;-66
2021/12/20 03:08:47;;;;;;;49.00;9.07;;;;;;;-1.48;100.00;-19128.47;4996755;28;20684;-66
2021/12/20 03:11:12;;;;;;;38.13;7.87;;;;;;;-1.52;100.00;-19127.41;5005560;28;20299;-66
2021/12/20 03:13:39;;;;;;;42.07;8.03;;;;;;;-1.66;100.00;-19123.81;5015645;28;20764;-66
2021/12/20 03:16:05;;;;;;;37.23;9.23;;;;;;;-1.77;100.00;-19121.00;5019480;28;20444;-66
2021/12/20 03:18:31;;;;;;;31.33;7.83;;;;;;;-1.78;100.00;-19120.59;5014035;28;21088;-66
2021/12/20 03:20:56;;;;;;;41.57;8.30;;;;;;;-1.63;100.00;-19124.47;5016774;28;20306;-66
2021/12/20 03:23:22;;;;;;;40.50;8.77;;;;;;;-1.75;100.00;-19121.41;5017572;28;20041;-68
2021/12/20 03:25:47;;;;;;;31.60;7.33;;;;;;;-1.85;100.00;-19118.88;5014352;28;20110;-68
2021/12/20 03:28:13;;;;;;;29.67;7.80;;;;;;;-1.89;100.00;-19117.66;5019024;28;20063;-68
2021/12/20 03:30:38;;;;;;;51.30;9.93;;;;;;;-1.60;100.00;-19125.41;5018079;28;20033;-68
2021/12/20 03:33:04;;;;;;;39.00;8.37;;;;;;;-1.57;100.00;-19126.06;5014455;28;20533;-68
2021/12/20 03:35:29;;;;;;;63.17;10.13;;;;;;;-1.73;100.00;-19121.81;5022328;28;20037;-68
2021/12/20 03:37:55;;;;;;;36.20;6.87;;;;;;;-1.83;100.00;-19119.41;5012459;28;20124;-68
2021/12/20 03:40:20;;;;;;;38.17;8.43;;;;;;;-1.98;100.00;-19115.41;5003943;28;20060;-68
2021/12/20 03:42:46;;;;;;;30.63;7.50;;;;;;;-1.97;100.00;-19115.66;5012216;28;20040;-68
2021/12/20 03:45:14;;;;;;;42.03;8.13;;;;;;;-2.02;100.00;-19114.34;5003316;28;20038;-68
2021/12/20 03:47:41;;;;;;;47.63;8.60;;;;;;;-1.85;100.00;-19118.88;5010643;28;20285;-68
2021/12/20 03:50:07;;;;;;;41.73;9.07;;;;;;;-1.83;100.00;-19119.41;5018161;28;20283;-68
2021/12/20 03:52:33;;;;;;;37.07;10.10;;;;;;;-1.96;100.00;-19115.81;5015451;28;20292;-68
2021/12/20 03:54:59;;;;;;;51.97;9.47;;;;;;;-1.91;100.00;-19117.28;5012598;28;20345;-68
2021/12/20 03:57:25;;;;;;;33.53;8.37;;;;;;;-1.51;100.00;-19127.66;5015359;28;20381;-68
2021/12/20 03:59:52;;;;;;;33.83;8.97;;;;;;;-1.19;100.00;-19136.06;5010079;28;20310;-68
2021/12/20 04:02:20;;;;;;;39.47;9.20;;;;;;;-1.21;100.00;-19135.66;5015698;28;20280;-68
2021/12/20 04:04:46;;;;;;;48.47;11.37;;;;;;;-1.33;100.00;-19132.47;5013522;28;20790;-68
2021/12/20 04:07:11;;;;;;;45.63;10.00;;;;;;;-1.49;100.00;-19128.19;5009808;28;20383;-68
2021/12/20 04:09:37;;;;;;;51.50;9.80;;;;;;;-1.64;100.00;-19124.19;5012327;28;20040;-68
2021/12/20 04:12:02;;;;;;;38.97;9.27;;;;;;;-1.87;100.00;-19118.34;5018101;28;20068;-68
2021/12/20 04:14:28;;;;;;;42.93;9.20;;;;;;;-2.02;100.00;-19114.34;5020382;28;20037;-68
2021/12/20 04:16:53;;;;;;;38.97;9.40;;;;;;;-2.02;100.00;-19114.34;5017519;28;20061;-68
2021/12/20 04:19:19;;;;;;;54.23;9.43;;;;;;;-1.97;100.00;-19115.66;5017175;28;20029;-68
2021/12/20 04:21:44;;;;;;;33.90;7.53;;;;;;;-2.02;100.00;-19114.34;5019022;28;20689;-68
2021/12/20 04:24:09;;;;;;;46.47;7.97;;;;;;;-2.12;100.00;-19111.81;5007374;28;20037;-68
2021/12/20 04:26:35;;;;;;;23.57;7.57;;;;;;;-2.22;100.00;-19109.00;5010552;28;20567;-68
2021/12/20 04:29:00;;;;;;;80.60;13.07;;;;;;;-2.21;100.00;-19109.41;5017230;28;20039;-68
2021/12/20 04:31:28;;;;;;;35.27;8.00;;;;;;;-2.00;100.00;-19114.75;5016216;28;20030;-68
2021/12/20 04:33:53;;;;;;;33.80;8.37;;;;;;;-2.01;100.00;-19114.47;5005587;28;20038;-68
2021/12/20 04:36:19;;;;;;;34.97;8.60;;;;;;;-2.15;100.00;-19110.88;5006364;28;20399;-68
2021/12/20 04:38:44;;;;;;;26.37;6.83;;;;;;;-2.20;100.00;-19109.53;5004266;28;20124;-68
2021/12/20 04:41:10;;;;;;;30.83;8.47;;;;;;;-2.21;100.00;-19109.28;5018767;28;20059;-68
2021/12/20 04:43:35;;;;;;;38.00;7.27;;;;;;;-2.23;100.00;-19108.75;5014031;28;20032;-68
2021/12/20 04:46:02;;;;;;;27.10;6.43;;;;;;;-2.27;100.00;-19107.81;5009412;28;20404;-68
2021/12/20 04:48:28;;;;;;;23.93;6.20;;;;;;;-2.34;100.00;-19105.94;5018758;28;20030;-68
2021/12/20 04:50:53;;;;;;;36.53;6.50;;;;;;;-2.33;100.00;-19106.06;5019315;28;20287;-68
2021/12/20 04:53:19;;;;;;;21.00;4.80;;;;;;;-2.38;100.00;-19105.00;5006685;28;20692;-68
2021/12/20 04:55:44;;;;;;;22.30;5.20;;;;;;;-2.30;100.00;-19106.88;5005617;28;20026;-68
2021/12/20 04:58:10;;;;;;;23.97;5.93;;;;;;;-2.22;100.00;-19109.00;5012230;28;20040;-68
2021/12/20 05:00:37;;;;;;;24.67;5.00;;;;;;;-2.17;100.00;-19110.34;5017137;28;20064;-68
2021/12/20 05:03:05;;;;;;;18.00;5.83;;;;;;;-2.25;100.00;-19108.19;5013477;28;20040;-68
2021/12/20 05:05:30;;;;;;;22.03;5.50;;;;;;;-2.21;100.00;-19109.28;5006470;28;20296;-68
2021/12/20 05:07:57;;;;;;;20.60;5.77;;;;;;;-2.31;100.00;-19106.72;5014801;28;20287;-68
2021/12/20 05:10:29;;;;;;;33.97;7.27;;;;;;;-2.27;100.00;-19107.66;5015092;28;20029;-68
2021/12/20 05:12:56;;;;;;;;;;;;;;;-2.19;100.00;-19109.81;5018644;28;20917;-68
2021/12/20 05:15:22;;;;;;;34.20;7.60;;;;;;;-2.20;100.00;-19109.66;5021034;28;19925;-68
2021/12/20 05:17:48;;;;;;;32.30;7.40;;;;;;;-2.26;100.00;-19107.94;5017316;28;20806;-68
2021/12/20 05:20:14;;;;;;;40.87;8.80;;;;;;;-2.36;100.00;-19105.53;5018833;28;20292;-68
2021/12/20 05:22:40;;;;;;;33.93;8.10;;;;;;;-2.34;100.00;-19105.81;5015963;28;20394;-68
2021/12/20 05:25:07;;;;;;;32.50;8.87;;;;;;;-2.33;100.00;-19106.19;5011470;28;20030;-68
2021/12/20 05:27:32;;;;;;;52.20;9.37;;;;;;;-2.30;100.00;-19106.88;5010129;28;20688;-68
2021/12/20 05:29:59;;;;;;;36.77;9.07;;;;;;;-2.27;100.00;-19107.66;5012400;28;20281;-68
2021/12/20 05:32:25;;;;;;;24.90;8.50;;;;;;;-2.30;100.00;-19106.88;5012785;28;20031;-68
2021/12/20 05:34:50;;;;;;;87.43;13.63;;;;;;;-2.37;100.00;-19105.28;5016329;28;20284;-68
2021/12/20 05:37:16;;;;;;;35.20;8.73;;;;;;;-2.29;100.00;-19107.28;5018550;28;20025;-68
2021/12/20 05:39:43;;;;;;;58.43;9.43;;;;;;;-2.20;100.00;-19109.53;5021848;28;20037;-68
2021/12/20 05:42:08;;;;;;;35.27;7.53;;;;;;;-2.19;100.00;-19109.81;5011070;28;20034;-68
2021/12/20 05:44:34;;;;;;;27.37;7.23;;;;;;;-2.20;100.00;-19109.53;5015689;28;20936;-68
2021/12/20 05:46:59;;;;;;;27.00;7.33;;;;;;;-2.09;100.00;-19112.59;5015540;28;20033;-68
2021/12/20 05:49:25;;;;;;;29.07;7.13;;;;;;;-2.18;100.00;-19110.06;5017458;28;20026;-68
2021/12/20 05:51:50;;;;;;;27.40;8.27;;;;;;;-2.17;100.00;-19110.47;5020188;28;20040;-68
2021/12/20 05:54:16;;;;;;;27.63;7.63;;;;;;;-2.21;100.00;-19109.28;5023536;28;20045;-68
2021/12/20 05:56:41;;;;;;;35.50;7.77;;;;;;;-2.24;100.00;-19108.47;5016203;28;20749;-68
2021/12/20 05:59:07;;;;;;;31.30;6.50;;;;;;;-2.25;100.00;-19108.19;5010464;28;20021;-68
2021/12/20 06:01:32;;;;;;;30.13;6.27;;;;;;;-2.28;100.00;-19107.41;5012139;28;20028;-68
2021/12/20 06:03:58;;;;;;;31.80;7.90;;;;;;;-2.33;100.00;-19106.06;5007902;28;20925;-68
2021/12/20 06:06:26;;;;;;;32.17;8.07;;;;;;;-2.39;100.00;-19104.59;5016026;28;20029;-68
2021/12/20 06:08:52;;;;;;;33.67;7.50;;;;;;;-2.40;100.00;-19104.34;5017923;28;20036;-68
2021/12/20 06:11:17;;;;;;;34.67;7.60;;;;;;;-2.48;100.00;-19102.34;5016781;28;20289;-68
2021/12/20 06:13:43;;;;;;;41.43;11.87;;;;;;;-2.38;100.00;-19104.88;5014842;28;20029;-68
2021/12/20 06:16:08;;;;;;;43.97;9.47;;;;;;;-2.31;100.00;-19106.59;5018393;28;20557;-68
2021/12/20 06:18:33;;;;;;;41.20;10.57;;;;;;;-2.37;100.00;-19105.28;5014847;28;20026;-68
2021/12/20 06:20:59;;;;;;;31.23;7.80;;;;;;;-2.36;100.00;-19105.53;5013963;28;20643;-68
2021/12/20 06:23:24;;;;;;;29.80;8.30;;;;;;;-2.40;100.00;-19104.34;5012038;28;20046;-68
2021/12/20 06:25:49;;;;;;;31.87;7.40;;;;;;;-2.39;100.00;-19104.75;5012773;28;20133;-68
2021/12/20 06:28:15;;;;;;;34.17;7.90;;;;;;;-2.46;100.00;-19102.88;5012467;28;20752;-68
2021/12/20 06:30:40;;;;;;;38.37;8.40;;;;;;;-2.43;100.00;-19103.53;5016541;28;20036;-68
2021/12/20 06:33:06;;;;;;;37.27;8.53;;;;;;;-2.41;100.00;-19104.22;5019544;28;20037;-68
2021/12/20 06:35:31;;;;;;;32.93;8.60;;;;;;;-2.54;100.00;-19100.75;5016202;28;20129;-68
2021/12/20 06:38:01;;;;;;;35.03;8.87;;;;;;;-2.56;100.00;-19100.19;5018052;28;20389;-68
2021/12/20 06:40:29;;;;;;;27.47;8.80;;;;;;;-2.60;100.00;-19099.13;5013230;28;20052;-68
2021/12/20 06:42:55;;;;;;;34.07;8.07;;;;;;;-2.67;100.00;-19097.41;5004891;28;20276;-68
2021/12/20 06:45:20;;;;;;;36.97;9.67;;;;;;;-2.69;100.00;-19096.72;5013513;28;20295;-68
2021/12/20 06:47:46;;;;;;;44.70;10.67;;;;;;;-2.53;100.00;-19101.00;5020344;28;20052;-68
2021/12/20 06:50:11;;;;;;;37.87;9.57;;;;;;;-2.55;100.00;-19100.34;5010216;28;20128;-68
2021/12/20 06:52:37;;;;;;;40.77;9.80;;;;;;;-2.54;100.00;-19100.75;5012648;28;20470;-68
2021/12/20 06:55:03;;;;;;;46.10;10.73;;;;;;;-2.52;100.00;-19101.28;5010239;28;20064;-68
2021/12/20 06:57:28;;;;;;;39.10;9.23;;;;;;;-2.43;100.00;-19103.53;5013624;28;20037;-68
2021/12/20 06:59:54;;;;;;;35.37;9.67;;;;;;;-2.47;100.00;-19102.59;5011926;28;20033;-68
2021/12/20 07:02:19;;;;;;;41.07;10.63;;;;;;;-2.50;100.00;-19101.66;5008103;28;20018;-68
2021/12/20 07:04:45;;;;;;;42.77;11.17;;;;;;;-2.57;100.00;-19099.94;5020792;28;20055;-68
2021/12/20 07:07:10;;;;;;;44.10;12.63;;;;;;;-2.54;100.00;-19100.59;5008069;28;20033;-68
2021/12/20 07:09:36;;;;;;;45.67;11.17;;;;;;;-2.49;100.00;-19101.94;5015197;28;20107;-68
2021/12/20 07:12:03;;;;;;;36.47;10.20;;;;;;;-2.60;100.00;-19099.13;5016185;28;20032;-68
2021/12/20 07:14:29;;;;;;;39.43;11.90;;;;;;;-2.54;100.00;-19100.75;5014277;28;20478;-68
2021/12/20 07:16:55;;;;;;;38.07;11.73;;;;;;;-2.69;100.00;-19096.88;5013597;28;20295;-68
2021/12/20 07:19:21;;;;;;;31.43;10.37;;;;;;;-2.73;100.00;-19095.66;5022291;28;20044;-68
2021/12/20 07:21:47;;;;;;;47.67;12.13;;;;;;;-2.79;100.00;-19094.19;5014051;28;20664;-68
2021/12/20 07:24:12;;;;;;;39.90;10.43;;;;;;;-2.76;100.00;-19094.88;5013999;28;20394;-68
2021/12/20 07:26:37;;;;;;;41.60;10.93;;;;;;;-2.75;100.00;-19095.13;5015320;28;20038;-68
2021/12/20 07:29:05;;;;;;;36.60;11.07;;;;;;;-2.74;100.00;-19095.41;5020534;28;20044;-68
2021/12/20 07:31:30;;;;;;;34.63;9.87;;;;;;;-2.75;100.00;-19095.13;5018654;28;20022;-68
2021/12/20 07:33:56;;;;;;;41.17;11.23;;;;;;;-2.80;100.00;-19093.94;5020720;28;20334;-68
2021/12/20 07:36:22;;;;;;;41.27;10.97;;;;;;;-2.84;100.00;-19092.88;5013256;28;20030;-68
2021/12/20 07:38:48;;;;;;;41.37;11.27;;;;;;;-2.85;100.00;-19092.47;5011104;28;20030;-68
2021/12/20 07:41:18;;;;;;;39.20;11.93;;;;;;;-2.88;100.00;-19091.66;5022956;28;21139;-68
2021/12/20 07:43:44;;;;;;;47.40;13.47;;;;;;;-2.98;100.00;-19089.25;5015186;28;20319;-68
2021/12/20 07:46:09;;;;;;;43.07;13.30;;;;;;;-2.88;100.00;-19091.66;5007033;28;20328;-68
2021/12/20 07:48:34;;;;;;;37.63;11.67;;;;;;;-2.93;100.00;-19090.34;5013254;28;20416;-68
2021/12/20 07:51:01;;;;;;;35.10;9.73;;;;;;;-2.85;100.00;-19092.47;5020908;28;20036;-68
2021/12/20 07:53:27;;;;;;;34.93;9.33;;;;;;;-2.88;100.00;-19091.81;5015017;28;20387;-68
2021/12/20 07:55:52;;;;;;;28.03;9.17;;;;;;;-2.73;100.00;-19095.66;5007316;28;20339;-68
2021/12/20 07:58:18;;;;;;;36.57;9.87;;;;;;;-2.70;100.00;-19096.47;5013863;28;20084;-68
2021/12/20 08:00:43;;;;;;;30.10;8.90;;;;;;;-2.70;100.00;-19096.47;5020486;28;20084;-68
2021/12/20 08:03:09;;;;;;;33.03;9.87;;;;;;;-2.60;100.00;-19099.13;5017214;28;20041;-68
2021/12/20 08:05:35;;;;;;;43.07;10.80;;;;;;;-2.49;100.00;-19102.06;5013898;28;20152;-68
2021/12/20 08:08:00;;;;;;;31.60;9.90;;;;;;;-2.34;100.00;-19105.81;5021929;28;20399;-68
2021/12/20 08:10:27;;;;;;;28.83;9.10;;;;;;;-2.21;100.00;-19109.28;5018219;28;20042;-68
2021/12/20 08:12:54;;;;;;;30.90;9.33;;;;;;;-2.18;100.00;-19110.06;5014888;28;20108;-68
2021/12/20 08:15:21;;;;;;;26.63;8.27;;;;;;;-2.09;100.00;-19112.47;5011292;28;20311;-68
2021/12/20 08:17:47;;;;;;;29.10;6.83;;;;;;;-2.03;100.00;-19114.06;5018923;28;20283;-68
2021/12/20 08:20:13;;;;;;;23.80;6.57;;;;;;;-1.94;100.00;-19116.47;5015856;28;20294;-68
2021/12/20 08:22:40;;;;;;;37.90;7.00;;;;;;;-1.71;100.00;-19122.34;5021358;28;20268;-68
2021/12/20 08:25:07;;;;;;;37.43;8.60;;;;;;;-1.26;100.00;-19134.31;5015984;28;20087;-69
2021/12/20 08:27:32;;;;;;;22.23;8.20;;;;;;;-0.69;100.00;-19149.09;5009219;28;20338;-66
2021/12/20 08:29:58;;;;;;;27.23;8.63;;;;;;;-0.37;100.00;-19157.50;5019764;28;20740;-66
2021/12/20 08:32:23;;;;;;;20.90;7.17;;;;;;;-0.20;100.00;-19161.88;5020514;28;20029;-66
2021/12/20 08:34:49;;;;;;;19.50;7.10;;;;;;;0.05;100.00;-19168.41;5019992;28;20039;-67
2021/12/20 08:37:14;;;;;;;14.80;5.77;;;;;;;0.34;100.00;-19176.13;5014655;28;20037;-67
2021/12/20 08:39:40;;;;;;;17.40;5.47;;;;;;;0.47;100.00;-19179.59;5011083;28;20037;-67
2021/12/20 08:42:06;;;;;;;14.87;5.30;;;;;;;1.07;100.00;-19195.28;5012225;28;20037;-67
2021/12/20 08:44:33;;;;;;;11.37;4.83;;;;;;;0.76;100.00;-19187.03;5019582;28;20493;-68
2021/12/20 08:46:59;;;;;;;13.47;4.90;;;;;;;0.51;100.00;-19180.66;5020035;28;20124;-67
2021/12/20 08:49:25;;;;;;;10.37;4.97;;;;;;;1.61;100.00;-19209.34;5024461;28;20584;-67
2021/12/20 08:51:51;;;;;;;11.30;5.00;;;;;;;1.42;100.00;-19204.31;5012249;28;20030;-67
2021/12/20 08:54:17;;;;;;;9.33;4.27;;;;;;;1.65;100.00;-19210.28;5023798;28;20039;-67
2021/12/20 08:56:43;;;;;;;10.90;4.30;;;;;;;1.43;100.00;-19204.56;5014706;28;20060;-67
2021/12/20 08:59:09;;;;;;;12.33;4.53;;;;;;;0.96;100.00;-19192.34;5021890;28;20029;-67
2021/12/20 09:01:35;;;;;;;13.03;5.77;;;;;;;0.30;100.00;-19175.06;5022370;28;20090;-67
2021/12/20 09:04:02;;;;;;;11.13;5.20;;;;;;;0.19;100.00;-19172.13;5016032;28;20037;-67
2021/12/20 09:06:28;;;;;;;13.00;5.03;;;;;;;-0.33;100.00;-19158.56;5019251;28;20052;-67
2021/12/20 09:08:55;;;;;;;19.10;6.00;;;;;;;-0.49;100.00;-19154.44;5020339;28;20060;-67
2021/12/20 09:11:22;;;;;;;14.40;4.57;;;;;;;-0.56;100.00;-19152.44;5022996;28;20056;-66
2021/12/20 09:13:48;;;;;;;15.57;5.90;;;;;;;-0.65;100.00;-19150.31;5024270;28;20029;-66
2021/12/20 09:16:14;;;;;;;11.00;4.67;;;;;;;-0.68;100.00;-19149.50;5025578;28;20084;-66
2021/12/20 09:18:40;;;;;;;17.20;5.13;;;;;;;-0.74;100.00;-19147.91;5016358;28;20041;-66
2021/12/20 09:21:08;;;;;;;15.17;5.50;;;;;;;-0.67;100.00;-19149.78;5025125;28;20037;-67
2021/12/20 09:23:34;;;;;;;14.43;5.30;;;;;;;-0.66;100.00;-19149.91;5016702;28;20025;-66
2021/12/20 09:25:59;;;;;;;16.70;6.20;;;;;;;-0.64;100.00;-19150.56;5016376;28;20372;-67
2021/12/20 09:28:25;;;;;;;13.37;5.67;;;;;;;-0.62;100.00;-19150.97;5022134;28;20031;-66
2021/12/20 09:30:50;;;;;;;15.77;6.10;;;;;;;-0.54;100.00;-19152.97;5025317;28;20496;-66
2021/12/20 09:33:16;;;;;;;14.50;6.73;;;;;;;-0.58;100.00;-19151.91;5019409;28;20109;-66
2021/12/20 09:35:41;;;;;;;21.33;7.53;;;;;;;-0.51;100.00;-19045.34;5010884;28;20049;-66
2021/12/20 09:38:10;;;;;;;14.10;6.77;;;;;;;-0.47;100.00;-18875.53;5015267;28;20034;-66
2021/12/20 09:40:40;;;;;;;12.60;6.33;;;;;;;-0.55;100.00;-18798.97;5009403;28;20492;-66
2021/12/20 09:43:09;;;;;;;19.17;7.27;;;;;;;-0.55;100.00;-18798.97;5024124;28;20288;-66
2021/12/20 09:45:35;;;;;;;15.53;7.50;;;;;;;-0.47;100.00;-18761.41;5019838;28;20292;-66
2021/12/20 09:48:00;;;;;;;16.80;7.37;;;;;;;-0.43;100.00;-18593.88;5010220;28;20281;-66
2021/12/20 09:50:26;;;;;;;19.40;7.70;;;;;;;-0.39;100.00;-18637.19;5013045;28;20296;-66
2021/12/20 09:52:53;;;;;;;17.20;7.87;;;;;;;-0.33;100.00;-18559.38;5018611;28;20358;-66
2021/12/20 09:55:19;;;;;;;18.73;7.70;;;;;;;-0.26;100.00;-18290.78;5009239;28;20325;-66
2021/12/20 09:57:48;;;;;;;25.30;8.03;;;;;;;-0.23;100.00;-18256.81;5013370;28;20264;-67
2021/12/20 10:00:18;;;;;;;16.30;8.70;;;;;;;-0.12;100.00;-18244.56;5022958;28;20792;-67
2021/12/20 10:02:47;;;;;;;17.83;8.60;;;;;;;-0.12;100.00;-18229.69;5020288;28;20272;-67
2021/12/20 10:05:13;;;;;;;19.83;7.83;;;;;;;-0.14;100.00;-18229.31;5022635;28;20296;-67
2021/12/20 10:07:39;;;;;;;24.87;10.27;;;;;;;-0.08;100.00;-18111.75;5020378;28;20292;-67
2021/12/20 10:10:07;;;;;;;24.73;10.40;;;;;;;-0.03;100.00;-17996.38;5018494;28;20267;-66
2021/12/20 10:12:32;;;;;;;18.00;9.87;;;;;;;0.01;100.00;-17900.38;5009520;28;20315;-67
2021/12/20 10:15:08;;;;;;;22.50;8.53;;;;;;;0.10;100.00;-17972.03;5020396;28;20268;-67
2021/12/20 10:17:48;;;;;;;15.47;8.60;;;;;;;0.17;100.00;-17842.25;5017601;28;20037;-67
2021/12/20 10:20:17;;;;;;;18.03;8.87;;;;;;;0.21;100.00;-17915.31;5008211;28;20359;-67
2021/12/20 10:22:43;;;;;;;18.67;8.87;;;;;;;0.26;100.00;-17861.94;5008514;28;20288;-67
2021/12/20 10:25:25;;;;;;;16.23;9.00;;;;;;;0.35;100.00;-17645.41;5014600;28;20276;-67
2021/12/20 10:27:51;;;;;;;;;;;;;;;0.42;100.00;-17637.28;5015763;28;20076;-67
2021/12/20 10:30:26;;;;;;;19.80;9.83;;;;;;;0.46;100.00;-17936.09;5023552;28;19959;-67
2021/12/20 10:32:52;;;;;;;27.03;10.90;;;;;;;0.54;100.00;-18022.50;5018498;28;20284;-67
2021/12/20 10:35:26;;;;;;;26.90;10.60;;;;;;;0.61;100.00;-18103.56;5022468;28;20384;-67
2021/12/20 10:38:00;;;;;;;23.73;10.93;;;;;;;0.65;100.00;-18055.00;5020589;28;20148;-67
2021/12/20 10:40:26;;;;;;;21.50;11.73;;;;;;;0.75;100.00;-3303.66;5011617;28;20284;-67
2021/12/20 10:42:53;;;;;;;23.37;11.33;;;;;;;0.78;100.00;511.56;5008811;28;20743;-66
2021/12/20 10:45:20;;;;;;;21.03;11.43;;;;;;;0.86;100.00;1944.09;5010512;28;20416;-67
2021/12/20 10:47:53;;;;;;;23.87;11.97;;;;;;;0.95;100.00;3000.09;5005936;28;20040;-66
2021/12/20 10:50:26;;;;;;;23.70;12.90;;;;;;;1.03;100.00;2993.34;5013398;28;20326;-67
2021/12/20 10:52:53;;;;;;;25.47;12.33;;;;;;;1.22;100.00;3235.47;5019360;28;20040;-67
2021/12/20 10:55:35;;;;;;;26.80;13.13;;;;;;;1.28;100.00;2327.84;5011533;28;20664;-68
2021/12/20 10:58:22;;;;;;;32.55;14.20;;;;;;;1.36;100.00;1865.72;5009981;28;20026;-67
2021/12/20 11:01:22;;;;;;;27.07;13.13;;;;;;;1.38;100.00;292.66;5020332;28;20025;-67
2021/12/20 11:04:06;;;;;;;22.23;11.37;;;;;;;1.51;100.00;-1589.44;5019071;28;20061;-67
2021/12/20 11:09:18;;;;;;;24.60;11.97;;;;;;;1.66;100.00;-6156.44;5006487;28;20142;-67
2021/12/20 11:11:49;;;;;;;28.20;12.63;;;;;;;1.77;100.00;-8912.84;5020120;28;20045;-67
2021/12/20 11:14:16;;;;;;;26.07;12.43;;;;;;;1.76;100.00;-11307.19;5012032;28;20037;-67
2021/12/20 11:16:50;;;;;;;18.83;11.00;;;;;;;1.92;100.00;-12600.88;5019696;28;20025;-67
2021/12/20 11:19:25;;;;;;;24.63;10.77;;;;;;;1.99;100.00;-15393.22;5013240;28;20083;-67
2021/12/20 11:21:54;;;;;;;21.80;10.90;;;;;;;2.16;100.00;-17658.31;5011960;28;20482;-67
2021/12/20 11:24:23;;;;;;;19.77;10.47;;;;;;;2.21;100.00;-19224.91;5015536;28;20108;-67
2021/12/20 11:26:50;;;;;;;20.70;9.40;;;;;;;2.29;100.00;-19227.03;5016954;28;20702;-67
2021/12/20 11:29:16;;;;;;;16.50;9.17;;;;;;;2.39;100.00;-19229.53;5016164;28;20596;-67